Time;durP1;ratioP1;P1;durP2;ratioP2;P2;SDS_P1;SDS_P2;PMS_P1;PMS_P2;Temp;Humidity;BMP_temperature;BMP_pressure;BME280_temperature;BME280_humidity;BME280_pressure;Samples;Min_cycle;Max_cycle;Signal;HPM_P1;HPM_P2
2022/05/18 00:00:18;;;;;;;5.83;2.13;;;7.20;96.50;;;;;;10072775;29;20809;-90
2022/05/18 00:05:19;;;;;;;4.57;2.47;;;7.00;96.60;;;;;;10073084;29;20538;-90
2022/05/18 00:10:20;;;;;;;3.30;2.20;;;6.90;97.60;;;;;;10072085;29;20033;-92
2022/05/18 00:15:23;;;;;;;7.00;2.40;;;6.80;98.00;;;;;;10067392;29;20044;-90
2022/05/18 00:20:24;;;;;;;7.80;2.40;;;6.90;98.60;;;;;;10073094;29;20043;-90
2022/05/18 00:25:31;;;;;;;4.20;2.43;;;6.90;98.30;;;;;;10072793;29;20072;-90
2022/05/18 00:30:33;;;;;;;5.87;2.23;;;6.90;98.70;;;;;;10039150;29;20673;-90
2022/05/18 00:35:35;;;;;;;4.93;2.50;;;6.80;99.00;;;;;;10072619;29;20029;-89
2022/05/18 00:40:39;;;;;;;5.67;2.37;;;6.80;98.70;;;;;;10067539;29;20048;-91
2022/05/18 00:45:40;;;;;;;5.87;2.47;;;6.90;97.60;;;;;;10069341;29;20036;-90
2022/05/18 00:50:42;;;;;;;2.67;1.70;;;7.20;94.90;;;;;;10072300;29;20037;-89
2022/05/18 00:55:48;;;;;;;6.27;1.90;;;7.40;93.40;;;;;;10070238;29;20033;-90
2022/05/18 01:00:51;;;;;;;3.80;1.60;;;7.40;92.50;;;;;;10069963;29;20521;-90
2022/05/18 01:06:07;;;;;;;3.83;1.80;;;7.40;91.20;;;;;;10071585;29;20033;-91
2022/05/18 01:11:08;;;;;;;5.47;2.20;;;7.50;90.70;;;;;;10069627;29;20165;-91
2022/05/18 01:16:09;;;;;;;2.80;1.80;;;7.40;90.90;;;;;;10068918;29;20323;-89
2022/05/18 01:21:10;;;;;;;5.60;2.10;;;7.40;88.90;;;;;;10058748;29;20069;-90
2022/05/18 01:26:28;;;;;;;7.90;2.43;;;7.40;89.20;;;;;;10057639;29;20066;-90
2022/05/18 01:31:48;;;;;;;4.23;2.03;;;7.40;88.10;;;;;;10069706;29;20506;-90
2022/05/18 01:36:49;;;;;;;4.77;2.17;;;7.40;88.30;;;;;;10070530;29;20041;-89
2022/05/18 01:42:13;;;;;;;4.13;2.17;;;7.40;87.40;;;;;;10056977;29;20029;-91
2022/05/18 01:47:14;;;;;;;7.03;2.07;;;7.30;86.60;;;;;;10063270;29;20044;-91
2022/05/18 01:52:15;;;;;;;6.53;2.30;;;7.20;86.00;;;;;;10069242;29;20041;-91
2022/05/18 01:57:16;;;;;;;7.77;2.33;;;7.20;86.70;;;;;;10069970;29;20076;-89
2022/05/18 02:02:17;;;;;;;5.27;1.73;;;7.00;86.80;;;;;;10069859;29;20532;-91
2022/05/18 02:07:18;;;;;;;4.90;2.00;;;7.00;85.80;;;;;;10047782;29;20033;-92
2022/05/18 02:12:19;;;;;;;4.07;1.87;;;6.90;86.10;;;;;;10067318;29;20449;-89
2022/05/18 02:17:19;;;;;;;5.07;1.80;;;6.90;85.30;;;;;;10057760;29;20044;-91
2022/05/18 02:22:20;;;;;;;4.37;2.00;;;6.70;84.20;;;;;;10069296;29;20094;-90
2022/05/18 02:27:21;;;;;;;8.63;2.37;;;6.60;83.80;;;;;;10076676;29;20045;-92
2022/05/18 02:32:22;;;;;;;5.60;2.13;;;6.60;83.50;;;;;;10069437;29;20068;-92
2022/05/18 02:37:23;;;;;;;3.90;1.83;;;6.50;84.30;;;;;;10077699;29;20045;-90
2022/05/18 02:42:23;;;;;;;5.30;2.40;;;6.30;85.20;;;;;;10075191;29;20053;-90
2022/05/18 02:47:24;;;;;;;4.30;2.03;;;6.10;85.90;;;;;;10075571;29;20029;-91
2022/05/18 02:52:25;;;;;;;2.87;2.00;;;5.80;86.70;;;;;;10061395;29;20033;-90
2022/05/18 02:57:26;;;;;;;4.80;2.00;;;5.50;87.90;;;;;;10073760;29;20591;-90
2022/05/18 03:02:27;;;;;;;8.37;1.80;;;5.20;89.40;;;;;;10072790;29;20055;-89
2022/05/18 03:07:27;;;;;;;4.17;2.30;;;5.00;90.40;;;;;;10043487;29;20493;-90
2022/05/18 03:12:28;;;;;;;4.27;2.03;;;4.90;90.80;;;;;;10048531;29;20033;-90
2022/05/18 03:17:32;;;;;;;3.90;1.90;;;4.80;91.30;;;;;;10073842;29;20075;-92
2022/05/18 03:27:51;;;;;;;4.20;2.00;;;4.60;92.30;;;;;;10090255;29;20045;-90
2022/05/18 03:32:52;;;;;;;6.00;2.40;;;4.40;93.10;;;;;;10055682;29;20037;-90
2022/05/18 03:37:53;;;;;;;6.77;2.33;;;4.30;94.40;;;;;;10036594;29;20160;-89
2022/05/18 03:42:53;;;;;;;4.93;2.27;;;4.20;95.70;;;;;;10047459;29;20386;-88
2022/05/18 03:47:55;;;;;;;6.53;2.13;;;4.20;96.30;;;;;;10072677;29;20040;-89
2022/05/18 03:52:56;;;;;;;6.23;2.30;;;4.20;97.10;;;;;;10073546;29;20033;-89
2022/05/18 03:57:57;;;;;;;5.63;2.40;;;4.30;97.80;;;;;;10073251;29;20060;-89
2022/05/18 04:02:58;;;;;;;5.17;2.47;;;4.30;98.10;;;;;;10073707;29;20065;-89
2022/05/18 04:08:00;;;;;;;4.13;2.20;;;4.40;98.50;;;;;;10064742;29;20129;-92
2022/05/18 04:13:17;;;;;;;5.03;2.00;;;4.70;97.40;;;;;;10062755;29;20037;-91
2022/05/18 04:18:18;;;;;;;7.63;2.13;;;5.00;96.20;;;;;;10035577;29;20072;-87
2022/05/18 04:23:20;;;;;;;5.17;2.47;;;5.40;95.40;;;;;;10059819;29;20052;-87
2022/05/18 04:28:20;;;;;;;8.73;2.63;;;5.60;94.80;;;;;;10054488;29;20067;-89
2022/05/18 04:33:23;;;;;;;4.87;2.27;;;5.80;93.70;;;;;;10048492;29;20047;-87
2022/05/18 04:38:24;;;;;;;10.57;3.90;;;6.00;93.20;;;;;;10066682;29;20139;-89
2022/05/18 04:43:25;;;;;;;7.60;2.70;;;6.20;91.70;;;;;;10070811;29;20084;-90
2022/05/18 04:48:30;;;;;;;4.90;2.53;;;6.40;91.20;;;;;;10072751;29;20033;-91
2022/05/18 04:54:08;;;;;;;6.18;2.28;;;6.60;90.30;;;;;;10071747;29;20029;-90
2022/05/18 04:59:09;;;;;;;6.30;2.87;;;6.80;88.20;;;;;;10072466;29;20071;-90
2022/05/18 05:04:13;;;;;;;6.57;2.97;;;6.90;87.70;;;;;;10072112;29;20051;-90
2022/05/18 05:09:14;;;;;;;5.93;2.40;;;7.10;87.30;;;;;;10071487;29;20033;-89
2022/05/18 05:14:15;;;;;;;8.67;2.90;;;7.30;86.80;;;;;;10072112;29;20029;-89
2022/05/18 05:19:22;;;;;;;6.33;2.33;;;7.50;85.50;;;;;;10071866;29;20041;-90
2022/05/18 05:24:22;;;;;;;5.33;2.27;;;7.60;85.60;;;;;;10071604;29;20041;-88
2022/05/18 05:29:23;;;;;;;4.07;2.33;;;7.80;83.70;;;;;;10071158;29;20039;-91
2022/05/18 05:34:24;;;;;;;4.97;2.30;;;8.00;82.90;;;;;;10071309;29;20077;-90
2022/05/18 05:39:25;;;;;;;4.87;2.10;;;8.20;82.50;;;;;;10070671;29;20743;-89
2022/05/18 05:44:26;;;;;;;4.83;1.83;;;8.40;81.50;;;;;;10071013;29;20060;-90
2022/05/18 05:49:33;;;;;;;5.17;1.80;;;8.60;80.60;;;;;;10070767;29;20033;-88
2022/05/18 05:54:37;;;;;;;5.37;1.93;;;8.80;80.00;;;;;;10073027;29;20097;-90
2022/05/18 05:59:38;;;;;;;4.60;1.93;;;9.00;81.70;;;;;;10078734;29;20717;-90
2022/05/18 06:04:39;;;;;;;3.80;1.50;;;9.30;79.70;;;;;;10077726;29;20086;-90
2022/05/18 06:09:41;;;;;;;2.83;1.70;;;9.40;75.90;;;;;;10078343;29;20101;-90
2022/05/18 06:14:45;;;;;;;5.37;1.40;;;9.50;76.90;;;;;;10079202;29;20045;-88
2022/05/18 06:19:46;;;;;;;3.33;1.80;;;9.80;76.80;;;;;;10078181;29;20056;-89
2022/05/18 06:24:51;;;;;;;3.47;1.27;;;10.00;75.80;;;;;;10078501;29;20049;-89
2022/05/18 06:29:52;;;;;;;3.57;1.37;;;10.20;74.50;;;;;;10068875;29;20131;-90
2022/05/18 06:34:53;;;;;;;3.67;1.33;;;10.50;71.80;;;;;;10076201;29;20543;-89
2022/05/18 06:39:53;;;;;;;4.47;1.23;;;10.60;71.50;;;;;;10080662;29;20045;-90
2022/05/18 06:44:54;;;;;;;1.98;1.30;;;10.80;70.90;;;;;;10074867;29;20479;-89
2022/05/18 06:49:56;;;;;;;3.65;1.00;;;10.90;68.80;;;;;;10074488;29;20053;-90
2022/05/18 06:54:56;;;;;;;3.80;1.13;;;11.30;68.30;;;;;;10082114;29;20021;-91
2022/05/18 06:59:57;;;;;;;4.30;1.25;;;11.70;69.70;;;;;;10082346;29;20482;-90
2022/05/18 07:04:59;;;;;;;9.77;1.55;;;13.10;62.10;;;;;;10084716;29;20125;-90
2022/05/18 07:10:00;;;;;;;4.25;1.63;;;14.60;61.10;;;;;;10079280;29;20028;-91
2022/05/18 07:15:01;;;;;;;4.43;1.35;;;15.80;56.10;;;;;;10085491;29;20489;-90
2022/05/18 07:20:04;;;;;;;2.90;0.65;;;16.50;57.30;;;;;;10076367;29;20037;-90
2022/05/18 07:25:06;;;;;;;2.45;1.05;;;16.60;52.80;;;;;;10084339;29;20132;-90
2022/05/18 07:30:08;;;;;;;2.28;0.90;;;16.80;48.70;;;;;;10075945;29;20468;-91
2022/05/18 07:35:08;;;;;;;2.45;1.08;;;17.00;48.20;;;;;;10081260;29;20081;-90
2022/05/18 07:40:10;;;;;;;8.23;1.92;;;16.50;49.30;;;;;;10072929;29;20036;-90
2022/05/18 07:45:10;;;;;;;1.55;0.98;;;15.90;49.90;;;;;;10078971;29;20025;-91
2022/05/18 07:50:12;;;;;;;5.25;1.30;;;15.50;49.70;;;;;;10086225;29;20485;-90
2022/05/18 07:55:13;;;;;;;1.08;0.82;;;15.10;48.90;;;;;;10080719;29;20064;-89
2022/05/18 08:00:15;;;;;;;1.80;1.13;;;15.30;47.60;;;;;;10089790;29;20548;-88
2022/05/18 08:05:17;;;;;;;4.65;0.80;;;15.60;52.20;;;;;;10112426;29;20397;-90
2022/05/18 08:15:38;;;;;;;2.25;0.90;;;15.80;49.40;;;;;;10129449;29;20107;-90
2022/05/18 08:20:40;;;;;;;3.47;1.10;;;16.10;49.40;;;;;;10093769;29;20033;-89
2022/05/18 08:25:43;;;;;;;5.47;1.02;;;16.10;51.60;;;;;;10079132;29;20037;-90
2022/05/18 08:30:44;;;;;;;2.50;1.40;;;16.40;49.90;;;;;;10092300;29;20030;-90
2022/05/18 08:35:48;;;;;;;1.60;0.93;;;16.40;48.60;;;;;;10087857;29;20024;-92
2022/05/18 08:41:00;;;;;;;2.60;1.10;;;16.30;45.00;;;;;;10090614;29;20393;-91
2022/05/18 08:46:03;;;;;;;1.73;0.90;;;16.60;45.30;;;;;;10095078;29;20112;-91
2022/05/18 08:51:17;;;;;;;2.08;1.15;;;16.90;47.90;;;;;;10088929;29;20033;-91
2022/05/18 08:56:24;;;;;;;3.80;1.05;;;17.00;45.80;;;;;;10087294;29;20680;-92
2022/05/18 09:01:42;;;;;;;3.10;1.08;;;17.30;45.90;;;;;;10072451;29;20084;-90
2022/05/18 09:06:56;;;;;;;1.55;1.20;;;17.70;47.90;;;;;;10089648;29;20036;-89
2022/05/18 09:12:01;;;;;;;5.90;1.45;;;17.50;45.20;;;;;;10094219;29;20029;-90
2022/05/18 09:17:31;;;;;;;3.42;1.35;;;17.50;47.70;;;;;;10089289;29;20025;-89
2022/05/18 09:22:49;;;;;;;3.00;1.23;;;17.60;45.80;;;;;;10087432;29;20072;-90
2022/05/18 09:27:57;;;;;;;4.13;1.30;;;17.80;46.40;;;;;;10086392;29;20209;-92
2022/05/18 09:33:25;;;;;;;1.85;1.05;;;17.70;45.40;;;;;;10089973;29;20028;-92
2022/05/18 09:39:27;;;;;;;3.75;1.45;;;17.90;43.10;;;;;;10104863;29;20070;-92
2022/05/18 09:44:40;;;;;;;4.10;1.40;;;18.00;47.40;;;;;;9935805;29;20129;-90
2022/05/18 09:49:50;;;;;;;2.92;0.95;;;18.10;45.30;;;;;;10044938;29;20044;-90
2022/05/18 09:54:54;;;;;;;2.55;1.08;;;18.70;46.60;;;;;;10088388;29;20032;-92
2022/05/18 10:00:01;;;;;;;2.85;1.27;;;19.00;43.60;;;;;;10092745;29;20037;-91
2022/05/18 10:10:34;;;;;;;1.80;1.02;;;18.30;41.50;;;;;;10109531;29;20040;-89
2022/05/18 10:15:40;;;;;;;2.75;1.13;;;18.60;43.80;;;;;;10085276;29;20033;-91
2022/05/18 10:20:41;;;;;;;;;;;18.40;43.60;;;;;;10087648;29;20048;-91
2022/05/18 10:25:50;;;;;;;3.45;1.10;;;18.60;44.50;;;;;;10092383;29;19916;-91
2022/05/18 10:31:05;;;;;;;1.48;1.10;;;19.20;42.40;;;;;;10088613;29;20505;-91
2022/05/18 10:36:12;;;;;;;1.42;0.93;;;19.40;43.40;;;;;;10083461;29;20021;-91
2022/05/18 10:41:16;;;;;;;3.33;1.33;;;20.10;43.50;;;;;;10057552;29;20125;-88
2022/05/18 10:46:20;;;;;;;1.38;1.08;;;20.40;43.90;;;;;;10046727;29;20043;-91
2022/05/18 10:51:39;;;;;;;2.38;1.10;;;20.30;44.50;;;;;;10092146;29;20065;-90
2022/05/18 10:56:40;;;;;;;1.80;0.90;;;20.10;43.50;;;;;;10093120;29;20024;-90
2022/05/18 11:02:04;;;;;;;2.47;0.98;;;20.20;40.00;;;;;;10087952;29;20067;-89
2022/05/18 11:07:07;;;;;;;2.50;1.15;;;20.60;44.20;;;;;;10044587;29;20037;-90
2022/05/18 11:12:41;;;;;;;2.95;1.38;;;20.60;42.30;;;;;;10074689;29;20040;-91
2022/05/18 11:17:42;;;;;;;2.22;1.30;;;21.00;43.10;;;;;;10082903;29;20627;-91
2022/05/18 11:22:46;;;;;;;1.95;1.10;;;20.70;41.00;;;;;;10074401;29;20120;-90
2022/05/18 11:28:14;;;;;;;2.63;0.82;;;20.40;43.40;;;;;;10072117;29;20041;-88
2022/05/18 11:33:36;;;;;;;1.65;0.93;;;20.50;43.30;;;;;;10076524;29;20052;-89
2022/05/18 11:38:52;;;;;;;3.20;0.88;;;20.70;41.70;;;;;;10067090;29;20041;-88
2022/05/18 11:44:31;;;;;;;4.07;1.25;;;20.90;42.80;;;;;;10082557;29;20037;-89
2022/05/18 11:49:55;;;;;;;1.27;0.60;;;21.10;40.60;;;;;;10061456;29;20036;-90
2022/05/18 11:55:09;;;;;;;2.80;1.10;;;21.40;40.90;;;;;;10067506;29;20108;-89
2022/05/18 12:06:12;;;;;;;1.55;0.95;;;21.90;40.90;;;;;;9993287;29;20048;-90
2022/05/18 12:11:22;;;;;;;3.58;1.48;;;22.10;40.10;;;;;;10067286;29;20363;-91
2022/05/18 12:16:48;;;;;;;2.65;1.00;;;21.90;41.50;;;;;;10070030;29;20177;-89
2022/05/18 12:21:53;;;;;;;3.17;1.13;;;22.10;41.10;;;;;;10064504;29;20580;-90
2022/05/18 12:26:55;;;;;;;;;;;22.10;42.20;;;;;;10066976;29;20541;-90
2022/05/18 12:31:57;;;;;;;2.88;1.00;;;21.70;38.80;;;;;;10070066;29;19924;-91
2022/05/18 12:37:03;;;;;;;1.70;0.70;;;21.40;38.40;;;;;;10065949;29;20021;-90
2022/05/18 12:42:08;;;;;;;;;;;21.20;39.20;;;;;;10068852;29;20051;-90
2022/05/18 12:47:25;;;;;;;3.47;1.43;;;21.10;38.70;;;;;;10059447;29;19968;-91
2022/05/18 12:53:02;;;;;;;1.10;0.90;;;21.00;37.90;;;;;;10066691;29;20376;-91
2022/05/18 12:58:08;;;;;;;2.42;1.23;;;20.90;40.50;;;;;;10067227;29;20493;-90
2022/05/18 13:03:09;;;;;;;2.60;1.00;;;21.20;36.10;;;;;;10062385;29;20056;-92
2022/05/18 13:08:16;;;;;;;4.70;1.45;;;21.50;40.00;;;;;;10067201;29;20076;-93
2022/05/18 13:13:53;;;;;;;6.22;1.27;;;22.00;40.00;;;;;;10055445;29;20032;-91
2022/05/18 13:18:59;;;;;;;2.03;1.10;;;21.80;38.90;;;;;;10079195;29;20044;-90
2022/05/18 13:24:10;;;;;;;2.10;1.30;;;21.70;39.70;;;;;;10077422;29;20505;-90
2022/05/18 13:29:15;;;;;;;5.55;1.20;;;21.50;40.60;;;;;;10070011;29;20033;-88
2022/05/18 13:34:37;;;;;;;3.60;1.73;;;21.40;39.20;;;;;;10068332;29;20033;-89
2022/05/18 13:39:38;;;;;;;2.80;1.20;;;21.70;40.90;;;;;;10059167;29;20509;-90
2022/05/18 13:44:40;;;;;;;1.35;1.02;;;21.80;40.00;;;;;;10070208;29;20031;-88
2022/05/18 13:49:43;;;;;;;4.45;1.30;;;21.90;39.00;;;;;;10067931;29;20611;-90
2022/05/18 13:54:46;;;;;;;4.70;1.88;;;22.00;39.70;;;;;;10063392;29;20028;-89
2022/05/18 13:59:54;;;;;;;2.05;1.08;;;21.80;40.50;;;;;;10062262;29;20054;-91
2022/05/18 14:04:59;;;;;;;3.80;1.35;;;21.40;37.60;;;;;;10068800;29;20105;-89
2022/05/18 14:10:05;;;;;;;3.60;1.03;;;21.00;38.50;;;;;;10063398;29;20029;-88
2022/05/18 14:15:07;;;;;;;2.60;1.13;;;20.50;37.90;;;;;;10062069;29;20026;-90
2022/05/18 14:20:34;;;;;;;1.77;1.13;;;20.00;37.00;;;;;;10072096;29;20147;-89
2022/05/18 14:25:47;;;;;;;2.75;1.08;;;19.70;37.70;;;;;;10055984;29;20033;-89
2022/05/18 14:30:48;;;;;;;1.33;0.80;;;19.50;37.70;;;;;;10058670;29;20029;-90
2022/05/18 14:35:52;;;;;;;2.63;1.17;;;19.60;39.00;;;;;;10076447;29;20040;-89
2022/05/18 14:40:57;;;;;;;3.67;1.30;;;19.40;37.30;;;;;;10073371;29;20104;-92
2022/05/18 14:46:03;;;;;;;2.20;1.00;;;19.30;39.40;;;;;;10076840;29;20036;-91
2022/05/18 14:51:12;;;;;;;2.45;0.75;;;19.10;37.90;;;;;;10091739;29;20036;-90
2022/05/18 14:56:13;;;;;;;3.80;0.93;;;18.90;37.30;;;;;;10074521;29;20136;-90
2022/05/18 15:01:18;;;;;;;5.43;1.40;;;18.90;37.90;;;;;;10076180;29;20049;-90
2022/05/18 15:06:28;;;;;;;1.27;0.80;;;18.80;36.80;;;;;;10073045;29;20040;-92
2022/05/18 15:11:48;;;;;;;1.38;0.80;;;18.70;38.80;;;;;;10064106;29;20025;-91
2022/05/18 15:16:54;;;;;;;1.60;1.00;;;18.60;36.90;;;;;;10082922;29;20152;-88
2022/05/18 15:22:11;;;;;;;2.55;1.17;;;18.50;37.90;;;;;;10074089;29;20047;-88
2022/05/18 15:27:25;;;;;;;2.00;1.17;;;18.50;38.50;;;;;;10079376;29;20568;-89
2022/05/18 15:32:36;;;;;;;3.60;1.20;;;18.50;37.60;;;;;;10068499;29;20382;-89
2022/05/18 15:37:42;;;;;;;3.17;1.20;;;18.40;37.60;;;;;;10074747;29;20125;-88
2022/05/18 15:42:43;;;;;;;1.52;0.90;;;18.50;38.30;;;;;;10062045;29;20032;-87
2022/05/18 15:47:54;;;;;;;2.40;1.08;;;18.50;39.20;;;;;;10062222;29;20036;-89
2022/05/18 15:52:55;;;;;;;2.28;0.93;;;18.50;36.90;;;;;;10074721;29;20460;-87
2022/05/18 15:57:58;;;;;;;8.40;7.10;;;18.50;37.80;;;;;;10089004;29;20041;-89
2022/05/18 16:02:58;;;;;;;3.33;1.40;;;18.40;38.20;;;;;;10068631;29;20045;-89
2022/05/18 16:07:59;;;;;;;7.65;6.25;;;18.40;37.00;;;;;;10054435;29;20037;-90
2022/05/18 16:13:01;;;;;;;31.33;26.23;;;18.30;39.10;;;;;;10074097;29;20029;-88
2022/05/18 16:18:02;;;;;;;15.80;14.20;;;18.40;40.60;;;;;;10072410;29;20041;-88
2022/05/18 16:23:02;;;;;;;2.55;1.50;;;18.30;40.60;;;;;;10087110;29;20045;-88
2022/05/18 16:28:06;;;;;;;1.52;1.02;;;18.20;42.40;;;;;;10069673;29;20123;-89
2022/05/18 16:33:06;;;;;;;3.88;1.40;;;18.20;40.70;;;;;;10064527;29;20040;-90
2022/05/18 16:38:07;;;;;;;3.38;1.00;;;18.30;39.70;;;;;;10070697;29;20045;-89
2022/05/18 16:43:08;;;;;;;1.90;1.08;;;18.20;42.90;;;;;;10064527;29;20121;-89
2022/05/18 16:48:08;;;;;;;3.85;0.90;;;18.10;39.20;;;;;;10074594;29;20029;-88
2022/05/18 16:53:09;;;;;;;10.27;4.13;;;18.10;39.00;;;;;;10085662;29;20474;-91
2022/05/18 16:58:10;;;;;;;74.82;51.38;;;18.00;42.40;;;;;;10071155;29;20481;-90
2022/05/18 17:03:10;;;;;;;45.47;24.65;;;17.80;44.20;;;;;;10062733;29;20060;-86
2022/05/18 17:13:31;;;;;;;10.93;3.20;;;17.40;46.70;;;;;;10086624;29;20120;-90
2022/05/18 17:18:33;;;;;;;7.13;2.60;;;17.20;49.30;;;;;;10062300;29;20055;-89
2022/05/18 17:23:35;;;;;;;19.88;10.05;;;16.90;49.00;;;;;;10062900;29;20037;-89
2022/05/18 17:28:40;;;;;;;13.18;5.35;;;16.70;49.50;;;;;;10065141;29;20037;-89
2022/05/18 17:33:42;;;;;;;7.30;3.50;;;16.30;50.40;;;;;;10066412;29;20481;-90
2022/05/18 17:38:43;;;;;;;4.95;2.80;;;15.90;50.50;;;;;;10067443;29;20047;-89
2022/05/18 17:43:43;;;;;;;3.90;1.85;;;15.60;50.80;;;;;;10077467;29;20056;-91
2022/05/18 17:48:44;;;;;;;6.13;2.10;;;15.20;51.40;;;;;;10060005;29;20041;-90
2022/05/18 17:53:45;;;;;;;5.03;2.15;;;14.90;52.20;;;;;;10066954;29;20032;-89
2022/05/18 17:58:49;;;;;;;4.55;2.53;;;14.70;53.70;;;;;;10079758;29;20059;-93
2022/05/18 18:03:53;;;;;;;3.28;1.15;;;14.40;53.30;;;;;;10085750;29;20132;-89
2022/05/18 18:08:54;;;;;;;5.38;0.93;;;14.10;53.90;;;;;;10069642;29;20033;-88
2022/05/18 18:13:55;;;;;;;4.82;2.30;;;13.90;54.00;;;;;;10068715;29;20116;-89
2022/05/18 18:18:57;;;;;;;7.22;2.35;;;13.50;53.10;;;;;;10063667;29;20509;-89
2022/05/18 18:24:00;;;;;;;6.65;2.30;;;13.30;55.00;;;;;;10067769;29;20030;-90
2022/05/18 18:29:00;;;;;;;7.97;3.00;;;13.20;55.80;;;;;;10085276;29;20025;-90
2022/05/18 18:34:01;;;;;;;8.77;4.05;;;12.90;55.90;;;;;;10066732;29;20116;-91
2022/05/18 18:39:04;;;;;;;16.67;4.60;;;12.70;55.20;;;;;;10058795;29;20131;-91
2022/05/18 18:44:08;;;;;;;11.73;3.80;;;12.60;56.10;;;;;;10057427;29;20158;-91
2022/05/18 18:49:11;;;;;;;6.88;2.42;;;12.60;56.10;;;;;;10070695;29;20013;-90
2022/05/18 18:59:34;;;;;;;3.38;2.00;;;12.50;57.40;;;;;;10082644;29;20060;-91
2022/05/18 19:04:35;;;;;;;7.55;3.42;;;12.20;58.10;;;;;;10069314;29;20624;-91
2022/05/18 19:09:56;;;;;;;3.28;1.60;;;12.10;57.20;;;;;;10069725;29;20409;-90
2022/05/18 19:14:59;;;;;;;5.00;2.17;;;12.00;58.50;;;;;;10069755;29;20029;-91
2022/05/18 19:19:59;;;;;;;5.53;2.40;;;11.80;59.30;;;;;;10068115;29;20069;-90
2022/05/18 19:25:14;;;;;;;5.28;2.63;;;11.80;58.80;;;;;;10073852;29;20072;-92
2022/05/18 19:42:48;;;;;;;4.85;2.35;;;11.30;60.60;;;;;;10040347;29;20467;-92
2022/05/18 19:47:51;;;;;;;9.38;3.22;;;11.10;59.90;;;;;;10073187;29;20474;-93
2022/05/18 19:53:17;;;;;;;4.88;1.65;;;11.10;59.90;;;;;;10070654;29;20039;-91
2022/05/18 20:04:31;;;;;;;11.25;4.97;;;11.40;56.80;;;;;;10070636;29;20080;-91
2022/05/18 21:18:11;;;;;;;10.33;3.53;;;9.80;68.50;;;;;;9777156;30;20044;-91
2022/05/18 21:24:24;;;;;;;8.50;4.10;;;9.70;69.10;;;;;;9783272;30;20041;-91
2022/05/18 21:30:15;;;;;;;;;;;;;;;;;;;;;
2022/05/18 21:35:32;;;;;;;9.10;4.23;;;9.40;69.70;;;;;;9927414;29;20046;-91
2022/05/18 21:40:42;;;;;;;8.02;3.75;;;9.40;70.20;;;;;;10001755;29;20071;-91
2022/05/18 21:45:55;;;;;;;10.90;4.30;;;9.30;69.90;;;;;;10030379;29;20029;-90
2022/05/18 21:50:56;;;;;;;9.93;4.03;;;9.30;70.80;;;;;;10031502;29;20045;-90
2022/05/18 21:56:17;;;;;;;10.23;4.40;;;9.20;71.40;;;;;;10027551;29;20398;-90
2022/05/18 22:01:19;;;;;;;11.33;3.90;;;9.20;71.40;;;;;;10026087;29;20514;-90
2022/05/18 22:07:05;;;;;;;11.90;4.13;;;9.20;71.20;;;;;;10037829;29;20140;-92
2022/05/18 22:12:13;;;;;;;10.63;4.20;;;9.00;71.90;;;;;;10051915;29;20036;-89
2022/05/18 22:17:14;;;;;;;12.40;5.10;;;9.00;72.60;;;;;;10067802;29;20030;-90
2022/05/18 22:22:15;;;;;;;12.73;4.63;;;8.90;73.70;;;;;;10069044;29;20080;-89
2022/05/18 22:27:19;;;;;;;14.20;6.80;;;8.80;74.30;;;;;;10060055;29;20092;-91
2022/05/18 22:32:20;;;;;;;12.50;4.87;;;8.60;74.30;;;;;;10050643;29;20147;-92
2022/05/18 22:37:21;;;;;;;12.03;4.90;;;8.50;74.70;;;;;;10071269;29;20128;-91
2022/05/18 22:42:31;;;;;;;10.57;4.47;;;8.30;74.80;;;;;;10076622;29;20041;-91
2022/05/18 22:47:38;;;;;;;11.33;4.40;;;8.30;75.80;;;;;;10075953;29;20045;-91
2022/05/18 22:52:38;;;;;;;11.13;5.17;;;8.10;76.90;;;;;;10059370;29;20072;-90
2022/05/18 22:58:06;;;;;;;10.90;4.10;;;8.20;77.60;;;;;;10073530;29;20490;-91
2022/05/18 23:03:35;;;;;;;10.67;4.47;;;8.20;77.70;;;;;;10058720;29;20045;-91
2022/05/18 23:15:10;;;;;;;13.47;5.40;;;8.30;77.70;;;;;;10074301;29;20068;-90
2022/05/18 23:20:16;;;;;;;13.70;5.33;;;8.30;76.50;;;;;;10071800;29;20056;-89
2022/05/18 23:25:22;;;;;;;11.87;4.83;;;8.20;76.40;;;;;;10051769;29;20029;-90
2022/05/18 23:30:26;;;;;;;13.68;4.57;;;8.10;76.60;;;;;;10055679;29;20045;-92
2022/05/18 23:35:30;;;;;;;13.27;5.20;;;8.10;76.90;;;;;;10055568;29;20043;-90
2022/05/18 23:40:37;;;;;;;11.70;4.97;;;8.00;77.30;;;;;;10090268;29;20405;-90
2022/05/18 23:47:00;;;;;;;12.63;4.80;;;7.90;77.90;;;;;;10057282;29;20774;-91
2022/05/18 23:52:49;;;;;;;13.93;4.87;;;7.90;77.50;;;;;;10052113;29;20145;-91
